sensor_id;sensor_type;location;lat;lon;timestamp;P1;durP1;ratioP1;P2;durP2;ratioP2
8291;SDS011;4184;42.724;23.308;2022-07-05T00:01:29;1.90;;;1.77;;
8291;SDS011;4184;42.724;23.308;2022-07-05T00:03:57;2.30;;;1.77;;
8291;SDS011;4184;42.724;23.308;2022-07-05T00:06:24;3.97;;;1.80;;
8291;SDS011;4184;42.724;23.308;2022-07-05T00:08:52;1.80;;;1.70;;
8291;SDS011;4184;42.724;23.308;2022-07-05T00:11:19;2.40;;;1.70;;
8291;SDS011;4184;42.724;23.308;2022-07-05T00:13:48;1.83;;;1.73;;
8291;SDS011;4184;42.724;23.308;2022-07-05T00:16:16;1.63;;;1.53;;
8291;SDS011;4184;42.724;23.308;2022-07-05T00:18:43;1.80;;;1.70;;
8291;SDS011;4184;42.724;23.308;2022-07-05T00:21:11;1.70;;;1.60;;
8291;SDS011;4184;42.724;23.308;2022-07-05T00:23:38;1.83;;;1.73;;
8291;SDS011;4184;42.724;23.308;2022-07-05T00:26:07;1.73;;;1.57;;
8291;SDS011;4184;42.724;23.308;2022-07-05T00:28:34;2.10;;;1.90;;
8291;SDS011;4184;42.724;23.308;2022-07-05T00:31:03;1.77;;;1.60;;
8291;SDS011;4184;42.724;23.308;2022-07-05T00:33:31;1.63;;;1.53;;
8291;SDS011;4184;42.724;23.308;2022-07-05T00:35:58;1.73;;;1.60;;
8291;SDS011;4184;42.724;23.308;2022-07-05T00:38:26;1.50;;;1.40;;
8291;SDS011;4184;42.724;23.308;2022-07-05T00:40:53;2.13;;;1.57;;
8291;SDS011;4184;42.724;23.308;2022-07-05T00:43:21;1.70;;;1.60;;
8291;SDS011;4184;42.724;23.308;2022-07-05T00:45:48;2.10;;;1.70;;
8291;SDS011;4184;42.724;23.308;2022-07-05T00:48:17;1.77;;;1.67;;
8291;SDS011;4184;42.724;23.308;2022-07-05T00:50:45;2.07;;;1.60;;
8291;SDS011;4184;42.724;23.308;2022-07-05T00:53:13;2.20;;;1.70;;
8291;SDS011;4184;42.724;23.308;2022-07-05T00:55:40;1.77;;;1.67;;
8291;SDS011;4184;42.724;23.308;2022-07-05T00:58:10;2.03;;;1.50;;
8291;SDS011;4184;42.724;23.308;2022-07-05T01:00:38;2.00;;;1.67;;
8291;SDS011;4184;42.724;23.308;2022-07-05T01:03:06;1.93;;;1.60;;
8291;SDS011;4184;42.724;23.308;2022-07-05T01:05:35;1.63;;;1.53;;
8291;SDS011;4184;42.724;23.308;2022-07-05T01:08:02;1.87;;;1.77;;
8291;SDS011;4184;42.724;23.308;2022-07-05T01:10:32;1.67;;;1.57;;
8291;SDS011;4184;42.724;23.308;2022-07-05T01:13:00;1.60;;;1.50;;
8291;SDS011;4184;42.724;23.308;2022-07-05T01:15:27;1.90;;;1.60;;
8291;SDS011;4184;42.724;23.308;2022-07-05T01:17:55;2.07;;;1.60;;
8291;SDS011;4184;42.724;23.308;2022-07-05T01:20:24;1.90;;;1.60;;
8291;SDS011;4184;42.724;23.308;2022-07-05T01:22:54;2.03;;;1.83;;
8291;SDS011;4184;42.724;23.308;2022-07-05T01:25:22;1.50;;;1.40;;
8291;SDS011;4184;42.724;23.308;2022-07-05T01:27:51;1.73;;;1.60;;
8291;SDS011;4184;42.724;23.308;2022-07-05T01:30:19;1.97;;;1.83;;
8291;SDS011;4184;42.724;23.308;2022-07-05T01:32:47;1.70;;;1.60;;
8291;SDS011;4184;42.724;23.308;2022-07-05T01:35:16;2.00;;;1.60;;
8291;SDS011;4184;42.724;23.308;2022-07-05T01:37:46;2.03;;;1.70;;
8291;SDS011;4184;42.724;23.308;2022-07-05T01:40:15;1.57;;;1.47;;
8291;SDS011;4184;42.724;23.308;2022-07-05T01:42:43;1.70;;;1.60;;
8291;SDS011;4184;42.724;23.308;2022-07-05T01:45:11;2.03;;;1.90;;
8291;SDS011;4184;42.724;23.308;2022-07-05T01:47:59;1.77;;;1.67;;
8291;SDS011;4184;42.724;23.308;2022-07-05T01:50:29;1.70;;;1.60;;
8291;SDS011;4184;42.724;23.308;2022-07-05T01:53:01;1.60;;;1.50;;
8291;SDS011;4184;42.724;23.308;2022-07-05T01:55:32;1.70;;;1.60;;
8291;SDS011;4184;42.724;23.308;2022-07-05T01:58:00;1.73;;;1.63;;
8291;SDS011;4184;42.724;23.308;2022-07-05T02:00:28;1.50;;;1.40;;
8291;SDS011;4184;42.724;23.308;2022-07-05T02:02:55;2.00;;;1.80;;
8291;SDS011;4184;42.724;23.308;2022-07-05T02:05:27;2.13;;;1.70;;
8291;SDS011;4184;42.724;23.308;2022-07-05T02:07:55;1.67;;;1.50;;
8291;SDS011;4184;42.724;23.308;2022-07-05T02:10:22;1.93;;;1.70;;
8291;SDS011;4184;42.724;23.308;2022-07-05T02:12:51;1.80;;;1.67;;
8291;SDS011;4184;42.724;23.308;2022-07-05T02:15:19;1.77;;;1.60;;
8291;SDS011;4184;42.724;23.308;2022-07-05T02:17:46;2.13;;;1.70;;
8291;SDS011;4184;42.724;23.308;2022-07-05T02:20:14;2.43;;;1.90;;
8291;SDS011;4184;42.724;23.308;2022-07-05T02:22:41;1.77;;;1.67;;
8291;SDS011;4184;42.724;23.308;2022-07-05T02:25:10;1.63;;;1.53;;
8291;SDS011;4184;42.724;23.308;2022-07-05T02:27:38;1.90;;;1.77;;
8291;SDS011;4184;42.724;23.308;2022-07-05T02:30:07;2.10;;;1.90;;
8291;SDS011;4184;42.724;23.308;2022-07-05T02:32:35;1.97;;;1.87;;
8291;SDS011;4184;42.724;23.308;2022-07-05T02:35:03;1.90;;;1.80;;
8291;SDS011;4184;42.724;23.308;2022-07-05T02:37:32;2.10;;;1.80;;
8291;SDS011;4184;42.724;23.308;2022-07-05T02:40:00;1.90;;;1.80;;
8291;SDS011;4184;42.724;23.308;2022-07-05T02:42:28;1.70;;;1.60;;
8291;SDS011;4184;42.724;23.308;2022-07-05T02:44:55;1.73;;;1.63;;
8291;SDS011;4184;42.724;23.308;2022-07-05T02:47:24;2.00;;;1.80;;
8291;SDS011;4184;42.724;23.308;2022-07-05T02:49:52;2.10;;;1.90;;
8291;SDS011;4184;42.724;23.308;2022-07-05T02:52:19;2.00;;;1.80;;
8291;SDS011;4184;42.724;23.308;2022-07-05T02:54:47;1.80;;;1.70;;
8291;SDS011;4184;42.724;23.308;2022-07-05T02:57:14;1.87;;;1.73;;
8291;SDS011;4184;42.724;23.308;2022-07-05T02:59:42;2.17;;;2.00;;
8291;SDS011;4184;42.724;23.308;2022-07-05T03:02:09;2.00;;;1.90;;
8291;SDS011;4184;42.724;23.308;2022-07-05T03:04:38;1.80;;;1.70;;
8291;SDS011;4184;42.724;23.308;2022-07-05T03:07:06;4.07;;;2.40;;
8291;SDS011;4184;42.724;23.308;2022-07-05T03:09:33;2.60;;;2.37;;
8291;SDS011;4184;42.724;23.308;2022-07-05T03:12:01;2.33;;;2.13;;
8291;SDS011;4184;42.724;23.308;2022-07-05T03:14:28;2.70;;;2.00;;
8291;SDS011;4184;42.724;23.308;2022-07-05T03:16:56;2.80;;;2.20;;
8291;SDS011;4184;42.724;23.308;2022-07-05T03:19:24;2.47;;;2.13;;
8291;SDS011;4184;42.724;23.308;2022-07-05T03:21:53;2.77;;;2.13;;
8291;SDS011;4184;42.724;23.308;2022-07-05T03:24:20;2.87;;;1.97;;
8291;SDS011;4184;42.724;23.308;2022-07-05T03:26:48;2.83;;;2.20;;
8291;SDS011;4184;42.724;23.308;2022-07-05T03:29:16;3.03;;;2.00;;
8291;SDS011;4184;42.724;23.308;2022-07-05T03:31:44;2.80;;;2.30;;
8291;SDS011;4184;42.724;23.308;2022-07-05T03:34:11;2.70;;;2.30;;
8291;SDS011;4184;42.724;23.308;2022-07-05T03:36:42;4.90;;;2.47;;
8291;SDS011;4184;42.724;23.308;2022-07-05T03:39:10;2.90;;;2.70;;
8291;SDS011;4184;42.724;23.308;2022-07-05T03:41:38;5.00;;;2.60;;
8291;SDS011;4184;42.724;23.308;2022-07-05T03:44:05;3.13;;;2.73;;
8291;SDS011;4184;42.724;23.308;2022-07-05T03:46:33;2.87;;;2.63;;
8291;SDS011;4184;42.724;23.308;2022-07-05T03:49:00;3.10;;;2.90;;
8291;SDS011;4184;42.724;23.308;2022-07-05T03:51:28;2.83;;;2.63;;
8291;SDS011;4184;42.724;23.308;2022-07-05T03:53:55;2.80;;;2.53;;
8291;SDS011;4184;42.724;23.308;2022-07-05T03:56:24;3.20;;;2.80;;
8291;SDS011;4184;42.724;23.308;2022-07-05T03:58:52;3.33;;;2.97;;
8291;SDS011;4184;42.724;23.308;2022-07-05T04:01:22;3.97;;;3.40;;
8291;SDS011;4184;42.724;23.308;2022-07-05T04:03:51;3.57;;;3.27;;
8291;SDS011;4184;42.724;23.308;2022-07-05T04:06:34;3.23;;;2.93;;
8291;SDS011;4184;42.724;23.308;2022-07-05T04:09:01;3.30;;;3.00;;
8291;SDS011;4184;42.724;23.308;2022-07-05T04:11:30;2.97;;;2.77;;
8291;SDS011;4184;42.724;23.308;2022-07-05T04:13:58;3.93;;;3.30;;
8291;SDS011;4184;42.724;23.308;2022-07-05T04:16:25;3.30;;;3.00;;
8291;SDS011;4184;42.724;23.308;2022-07-05T04:18:53;3.40;;;3.10;;
8291;SDS011;4184;42.724;23.308;2022-07-05T04:21:21;3.50;;;3.20;;
8291;SDS011;4184;42.724;23.308;2022-07-05T04:23:48;3.40;;;3.10;;
8291;SDS011;4184;42.724;23.308;2022-07-05T04:26:16;3.93;;;2.50;;
8291;SDS011;4184;42.724;23.308;2022-07-05T04:28:45;3.50;;;2.70;;
8291;SDS011;4184;42.724;23.308;2022-07-05T04:31:12;2.83;;;2.60;;
8291;SDS011;4184;42.724;23.308;2022-07-05T04:33:41;3.53;;;2.73;;
8291;SDS011;4184;42.724;23.308;2022-07-05T04:36:09;3.50;;;2.93;;
8291;SDS011;4184;42.724;23.308;2022-07-05T04:38:37;2.70;;;2.50;;
8291;SDS011;4184;42.724;23.308;2022-07-05T04:41:04;2.73;;;2.53;;
8291;SDS011;4184;42.724;23.308;2022-07-05T04:43:32;2.83;;;2.53;;
8291;SDS011;4184;42.724;23.308;2022-07-05T04:46:01;4.27;;;2.60;;
8291;SDS011;4184;42.724;23.308;2022-07-05T04:48:29;2.97;;;2.30;;
8291;SDS011;4184;42.724;23.308;2022-07-05T04:50:56;2.37;;;2.17;;
8291;SDS011;4184;42.724;23.308;2022-07-05T04:53:24;3.93;;;2.57;;
8291;SDS011;4184;42.724;23.308;2022-07-05T04:55:54;2.43;;;2.23;;
8291;SDS011;4184;42.724;23.308;2022-07-05T04:58:25;3.43;;;3.13;;
8291;SDS011;4184;42.724;23.308;2022-07-05T05:00:52;2.97;;;2.63;;
8291;SDS011;4184;42.724;23.308;2022-07-05T05:03:21;3.60;;;2.70;;
8291;SDS011;4184;42.724;23.308;2022-07-05T05:05:49;3.10;;;2.87;;
8291;SDS011;4184;42.724;23.308;2022-07-05T05:08:17;2.73;;;2.53;;
8291;SDS011;4184;42.724;23.308;2022-07-05T05:10:44;2.80;;;2.60;;
8291;SDS011;4184;42.724;23.308;2022-07-05T05:13:12;2.70;;;2.50;;
8291;SDS011;4184;42.724;23.308;2022-07-05T05:15:39;2.97;;;2.50;;
8291;SDS011;4184;42.724;23.308;2022-07-05T05:18:07;5.03;;;3.17;;
8291;SDS011;4184;42.724;23.308;2022-07-05T05:20:36;3.27;;;2.97;;
8291;SDS011;4184;42.724;23.308;2022-07-05T05:23:03;3.73;;;2.43;;
8291;SDS011;4184;42.724;23.308;2022-07-05T05:25:31;2.87;;;2.60;;
8291;SDS011;4184;42.724;23.308;2022-07-05T05:28:00;2.53;;;2.33;;
8291;SDS011;4184;42.724;23.308;2022-07-05T05:30:28;2.50;;;2.30;;
8291;SDS011;4184;42.724;23.308;2022-07-05T05:32:55;4.00;;;2.90;;
8291;SDS011;4184;42.724;23.308;2022-07-05T05:35:23;2.80;;;2.60;;
8291;SDS011;4184;42.724;23.308;2022-07-05T05:37:52;2.77;;;2.57;;
8291;SDS011;4184;42.724;23.308;2022-07-05T05:40:21;3.40;;;2.87;;
8291;SDS011;4184;42.724;23.308;2022-07-05T05:42:51;4.23;;;2.70;;
8291;SDS011;4184;42.724;23.308;2022-07-05T05:45:19;3.37;;;2.50;;
8291;SDS011;4184;42.724;23.308;2022-07-05T05:47:48;4.43;;;2.50;;
8291;SDS011;4184;42.724;23.308;2022-07-05T05:50:20;3.17;;;2.30;;
8291;SDS011;4184;42.724;23.308;2022-07-05T05:52:48;3.00;;;2.70;;
8291;SDS011;4184;42.724;23.308;2022-07-05T05:55:18;3.47;;;2.60;;
8291;SDS011;4184;42.724;23.308;2022-07-05T05:57:46;2.60;;;2.40;;
8291;SDS011;4184;42.724;23.308;2022-07-05T06:00:14;2.90;;;2.70;;
8291;SDS011;4184;42.724;23.308;2022-07-05T06:02:42;2.70;;;2.50;;
8291;SDS011;4184;42.724;23.308;2022-07-05T06:05:10;2.67;;;2.47;;
8291;SDS011;4184;42.724;23.308;2022-07-05T06:07:45;4.27;;;2.60;;
8291;SDS011;4184;42.724;23.308;2022-07-05T06:10:18;3.13;;;2.33;;
8291;SDS011;4184;42.724;23.308;2022-07-05T06:12:47;2.60;;;2.40;;
8291;SDS011;4184;42.724;23.308;2022-07-05T06:15:17;2.43;;;2.10;;
8291;SDS011;4184;42.724;23.308;2022-07-05T06:17:45;3.13;;;2.10;;
8291;SDS011;4184;42.724;23.308;2022-07-05T06:20:15;2.90;;;2.37;;
8291;SDS011;4184;42.724;23.308;2022-07-05T06:22:44;2.53;;;2.30;;
8291;SDS011;4184;42.724;23.308;2022-07-05T06:25:12;2.50;;;2.30;;
8291;SDS011;4184;42.724;23.308;2022-07-05T06:27:41;2.20;;;2.00;;
8291;SDS011;4184;42.724;23.308;2022-07-05T06:30:13;2.20;;;2.00;;
8291;SDS011;4184;42.724;23.308;2022-07-05T06:32:42;2.83;;;2.30;;
8291;SDS011;4184;42.724;23.308;2022-07-05T06:35:10;3.97;;;2.20;;
8291;SDS011;4184;42.724;23.308;2022-07-05T06:37:42;5.13;;;2.17;;
8291;SDS011;4184;42.724;23.308;2022-07-05T06:40:11;2.00;;;1.90;;
8291;SDS011;4184;42.724;23.308;2022-07-05T06:42:41;2.40;;;2.00;;
8291;SDS011;4184;42.724;23.308;2022-07-05T06:45:08;2.00;;;1.90;;
8291;SDS011;4184;42.724;23.308;2022-07-05T06:47:36;2.87;;;2.30;;
8291;SDS011;4184;42.724;23.308;2022-07-05T06:50:05;2.67;;;2.30;;
8291;SDS011;4184;42.724;23.308;2022-07-05T06:52:33;2.20;;;2.10;;
8291;SDS011;4184;42.724;23.308;2022-07-05T06:55:01;2.93;;;1.87;;
8291;SDS011;4184;42.724;23.308;2022-07-05T06:57:29;2.20;;;2.00;;
8291;SDS011;4184;42.724;23.308;2022-07-05T06:59:58;2.37;;;2.10;;
8291;SDS011;4184;42.724;23.308;2022-07-05T07:02:26;3.53;;;2.30;;
8291;SDS011;4184;42.724;23.308;2022-07-05T07:04:54;2.87;;;2.20;;
8291;SDS011;4184;42.724;23.308;2022-07-05T07:07:21;2.40;;;2.20;;
8291;SDS011;4184;42.724;23.308;2022-07-05T07:10:06;3.13;;;1.90;;
8291;SDS011;4184;42.724;23.308;2022-07-05T07:12:34;2.13;;;2.00;;
8291;SDS011;4184;42.724;23.308;2022-07-05T07:15:04;2.10;;;1.90;;
8291;SDS011;4184;42.724;23.308;2022-07-05T07:17:32;3.23;;;2.30;;
8291;SDS011;4184;42.724;23.308;2022-07-05T07:20:00;3.00;;;2.13;;
8291;SDS011;4184;42.724;23.308;2022-07-05T07:22:27;2.50;;;2.30;;
8291;SDS011;4184;42.724;23.308;2022-07-05T07:24:55;2.37;;;2.17;;
8291;SDS011;4184;42.724;23.308;2022-07-05T07:27:22;2.60;;;2.40;;
8291;SDS011;4184;42.724;23.308;2022-07-05T07:29:50;2.63;;;2.27;;
8291;SDS011;4184;42.724;23.308;2022-07-05T07:32:19;3.27;;;2.30;;
8291;SDS011;4184;42.724;23.308;2022-07-05T07:34:46;2.20;;;1.97;;
8291;SDS011;4184;42.724;23.308;2022-07-05T07:37:14;2.70;;;2.13;;
8291;SDS011;4184;42.724;23.308;2022-07-05T07:39:44;2.53;;;2.33;;
8291;SDS011;4184;42.724;23.308;2022-07-05T07:42:11;5.83;;;2.20;;
8291;SDS011;4184;42.724;23.308;2022-07-05T07:44:39;3.33;;;2.03;;
8291;SDS011;4184;42.724;23.308;2022-07-05T07:47:06;2.30;;;2.07;;
8291;SDS011;4184;42.724;23.308;2022-07-05T07:49:35;2.40;;;2.20;;
8291;SDS011;4184;42.724;23.308;2022-07-05T07:52:03;2.40;;;2.20;;
8291;SDS011;4184;42.724;23.308;2022-07-05T07:54:30;2.27;;;2.07;;
8291;SDS011;4184;42.724;23.308;2022-07-05T07:56:58;2.10;;;1.90;;
8291;SDS011;4184;42.724;23.308;2022-07-05T07:59:27;3.73;;;1.90;;
8291;SDS011;4184;42.724;23.308;2022-07-05T08:01:54;2.50;;;2.30;;
8291;SDS011;4184;42.724;23.308;2022-07-05T08:04:22;2.20;;;2.00;;
8291;SDS011;4184;42.724;23.308;2022-07-05T08:06:53;2.70;;;2.23;;
8291;SDS011;4184;42.724;23.308;2022-07-05T08:09:21;2.40;;;2.20;;
8291;SDS011;4184;42.724;23.308;2022-07-05T08:11:50;3.27;;;2.37;;
8291;SDS011;4184;42.724;23.308;2022-07-05T08:14:17;3.70;;;2.10;;
8291;SDS011;4184;42.724;23.308;2022-07-05T08:16:46;3.27;;;2.40;;
8291;SDS011;4184;42.724;23.308;2022-07-05T08:19:14;4.40;;;2.20;;
8291;SDS011;4184;42.724;23.308;2022-07-05T08:22:01;2.50;;;2.30;;
8291;SDS011;4184;42.724;23.308;2022-07-05T08:24:28;2.43;;;2.20;;
8291;SDS011;4184;42.724;23.308;2022-07-05T08:26:56;2.50;;;2.30;;
8291;SDS011;4184;42.724;23.308;2022-07-05T08:29:23;2.90;;;2.20;;
8291;SDS011;4184;42.724;23.308;2022-07-05T08:31:51;2.73;;;2.33;;
8291;SDS011;4184;42.724;23.308;2022-07-05T08:34:19;3.27;;;2.40;;
8291;SDS011;4184;42.724;23.308;2022-07-05T08:36:47;2.77;;;2.27;;
8291;SDS011;4184;42.724;23.308;2022-07-05T08:39:16;4.60;;;2.37;;
8291;SDS011;4184;42.724;23.308;2022-07-05T08:41:47;2.23;;;2.07;;
8291;SDS011;4184;42.724;23.308;2022-07-05T08:44:15;2.30;;;2.10;;
8291;SDS011;4184;42.724;23.308;2022-07-05T08:46:45;5.00;;;2.10;;
8291;SDS011;4184;42.724;23.308;2022-07-05T08:49:15;2.73;;;2.40;;
8291;SDS011;4184;42.724;23.308;2022-07-05T08:51:49;2.70;;;2.50;;
8291;SDS011;4184;42.724;23.308;2022-07-05T08:54:20;4.87;;;2.30;;
8291;SDS011;4184;42.724;23.308;2022-07-05T08:56:50;2.30;;;2.10;;
8291;SDS011;4184;42.724;23.308;2022-07-05T08:59:18;4.97;;;2.73;;
8291;SDS011;4184;42.724;23.308;2022-07-05T09:01:45;3.03;;;2.20;;
8291;SDS011;4184;42.724;23.308;2022-07-05T09:04:14;3.07;;;2.40;;
8291;SDS011;4184;42.724;23.308;2022-07-05T09:06:45;3.43;;;2.83;;
8291;SDS011;4184;42.724;23.308;2022-07-05T09:09:15;2.70;;;2.50;;
8291;SDS011;4184;42.724;23.308;2022-07-05T09:11:45;2.70;;;2.30;;
8291;SDS011;4184;42.724;23.308;2022-07-05T09:14:18;3.40;;;2.63;;
8291;SDS011;4184;42.724;23.308;2022-07-05T09:16:47;2.77;;;2.40;;
8291;SDS011;4184;42.724;23.308;2022-07-05T09:19:15;2.90;;;2.47;;
8291;SDS011;4184;42.724;23.308;2022-07-05T09:21:42;3.00;;;2.43;;
8291;SDS011;4184;42.724;23.308;2022-07-05T09:24:11;3.10;;;2.60;;
8291;SDS011;4184;42.724;23.308;2022-07-05T09:26:40;2.43;;;2.23;;
8291;SDS011;4184;42.724;23.308;2022-07-05T09:29:15;2.83;;;2.63;;
8291;SDS011;4184;42.724;23.308;2022-07-05T09:31:44;3.33;;;2.60;;
8291;SDS011;4184;42.724;23.308;2022-07-05T09:34:14;3.37;;;2.90;;
8291;SDS011;4184;42.724;23.308;2022-07-05T09:36:52;2.93;;;2.63;;
8291;SDS011;4184;42.724;23.308;2022-07-05T09:39:39;2.77;;;2.50;;
8291;SDS011;4184;42.724;23.308;2022-07-05T09:42:10;2.70;;;2.50;;
8291;SDS011;4184;42.724;23.308;2022-07-05T09:44:43;3.13;;;2.70;;
8291;SDS011;4184;42.724;23.308;2022-07-05T09:47:11;4.87;;;3.00;;
8291;SDS011;4184;42.724;23.308;2022-07-05T09:49:41;3.60;;;2.90;;
8291;SDS011;4184;42.724;23.308;2022-07-05T09:52:10;3.40;;;2.80;;
8291;SDS011;4184;42.724;23.308;2022-07-05T09:54:59;2.50;;;2.30;;
8291;SDS011;4184;42.724;23.308;2022-07-05T09:57:28;3.40;;;2.63;;
8291;SDS011;4184;42.724;23.308;2022-07-05T10:00:00;3.17;;;2.87;;
8291;SDS011;4184;42.724;23.308;2022-07-05T10:02:35;3.00;;;2.70;;
8291;SDS011;4184;42.724;23.308;2022-07-05T10:05:07;2.80;;;2.60;;
8291;SDS011;4184;42.724;23.308;2022-07-05T10:07:36;2.90;;;2.70;;
8291;SDS011;4184;42.724;23.308;2022-07-05T10:10:11;2.80;;;2.60;;
8291;SDS011;4184;42.724;23.308;2022-07-05T10:12:40;2.47;;;2.27;;
8291;SDS011;4184;42.724;23.308;2022-07-05T10:15:11;3.00;;;2.47;;
8291;SDS011;4184;42.724;23.308;2022-07-05T10:17:41;3.00;;;2.80;;
8291;SDS011;4184;42.724;23.308;2022-07-05T10:20:12;5.33;;;2.90;;
8291;SDS011;4184;42.724;23.308;2022-07-05T10:22:46;5.23;;;2.80;;
8291;SDS011;4184;42.724;23.308;2022-07-05T10:25:13;3.67;;;3.20;;
8291;SDS011;4184;42.724;23.308;2022-07-05T10:27:41;3.67;;;3.23;;
8291;SDS011;4184;42.724;23.308;2022-07-05T10:30:11;6.80;;;3.47;;
8291;SDS011;4184;42.724;23.308;2022-07-05T10:32:41;3.07;;;2.77;;
8291;SDS011;4184;42.724;23.308;2022-07-05T10:35:09;3.27;;;2.97;;
8291;SDS011;4184;42.724;23.308;2022-07-05T10:37:37;5.03;;;3.10;;
8291;SDS011;4184;42.724;23.308;2022-07-05T10:40:06;3.77;;;3.23;;
8291;SDS011;4184;42.724;23.308;2022-07-05T10:42:36;3.27;;;3.00;;
8291;SDS011;4184;42.724;23.308;2022-07-05T10:50:43;4.33;;;3.37;;
8291;SDS011;4184;42.724;23.308;2022-07-05T10:53:13;4.00;;;3.20;;
8291;SDS011;4184;42.724;23.308;2022-07-05T10:55:57;3.47;;;3.17;;
8291;SDS011;4184;42.724;23.308;2022-07-05T10:58:29;4.10;;;3.70;;
8291;SDS011;4184;42.724;23.308;2022-07-05T11:04:30;3.80;;;3.50;;
8291;SDS011;4184;42.724;23.308;2022-07-05T11:07:00;4.53;;;3.97;;
8291;SDS011;4184;42.724;23.308;2022-07-05T11:09:29;4.23;;;3.87;;
8291;SDS011;4184;42.724;23.308;2022-07-05T11:12:03;4.30;;;3.90;;
8291;SDS011;4184;42.724;23.308;2022-07-05T11:14:35;4.33;;;3.93;;
8291;SDS011;4184;42.724;23.308;2022-07-05T11:17:14;4.90;;;3.57;;
8291;SDS011;4184;42.724;23.308;2022-07-05T11:20:03;5.80;;;3.70;;
8291;SDS011;4184;42.724;23.308;2022-07-05T11:22:34;5.90;;;3.80;;
8291;SDS011;4184;42.724;23.308;2022-07-05T11:25:04;4.00;;;3.70;;
8291;SDS011;4184;42.724;23.308;2022-07-05T11:27:32;4.07;;;3.70;;
8291;SDS011;4184;42.724;23.308;2022-07-05T11:30:00;3.50;;;3.20;;
8291;SDS011;4184;42.724;23.308;2022-07-05T11:32:35;3.60;;;3.30;;
8291;SDS011;4184;42.724;23.308;2022-07-05T11:35:14;3.90;;;3.60;;
8291;SDS011;4184;42.724;23.308;2022-07-05T11:38:03;4.43;;;3.77;;
8291;SDS011;4184;42.724;23.308;2022-07-05T11:40:32;3.63;;;3.27;;
8291;SDS011;4184;42.724;23.308;2022-07-05T11:43:01;3.43;;;3.23;;
8291;SDS011;4184;42.724;23.308;2022-07-05T11:45:32;4.33;;;3.10;;
8291;SDS011;4184;42.724;23.308;2022-07-05T11:48:00;4.07;;;3.77;;
8291;SDS011;4184;42.724;23.308;2022-07-05T11:50:31;3.57;;;3.27;;
8291;SDS011;4184;42.724;23.308;2022-07-05T11:53:00;3.10;;;2.90;;
8291;SDS011;4184;42.724;23.308;2022-07-05T11:55:29;4.40;;;3.60;;
8291;SDS011;4184;42.724;23.308;2022-07-05T11:57:57;4.67;;;3.43;;
8291;SDS011;4184;42.724;23.308;2022-07-05T12:00:29;3.60;;;3.30;;
8291;SDS011;4184;42.724;23.308;2022-07-05T12:02:58;3.63;;;3.33;;
8291;SDS011;4184;42.724;23.308;2022-07-05T12:05:33;3.90;;;3.50;;
8291;SDS011;4184;42.724;23.308;2022-07-05T12:08:00;3.57;;;3.27;;
8291;SDS011;4184;42.724;23.308;2022-07-05T12:10:28;3.50;;;3.20;;
8291;SDS011;4184;42.724;23.308;2022-07-05T12:13:12;3.70;;;2.90;;
8291;SDS011;4184;42.724;23.308;2022-07-05T12:15:40;3.60;;;3.30;;
8291;SDS011;4184;42.724;23.308;2022-07-05T12:18:08;3.87;;;3.57;;
8291;SDS011;4184;42.724;23.308;2022-07-05T12:20:38;3.53;;;3.23;;
8291;SDS011;4184;42.724;23.308;2022-07-05T12:23:06;3.60;;;3.30;;
8291;SDS011;4184;42.724;23.308;2022-07-05T12:25:34;3.80;;;3.50;;
8291;SDS011;4184;42.724;23.308;2022-07-05T12:28:02;3.33;;;3.03;;
8291;SDS011;4184;42.724;23.308;2022-07-05T12:30:32;4.27;;;3.20;;
8291;SDS011;4184;42.724;23.308;2022-07-05T12:33:00;4.70;;;3.53;;
8291;SDS011;4184;42.724;23.308;2022-07-05T12:35:29;5.13;;;3.80;;
8291;SDS011;4184;42.724;23.308;2022-07-05T12:38:08;3.83;;;3.43;;
8291;SDS011;4184;42.724;23.308;2022-07-05T12:40:37;4.17;;;3.70;;
8291;SDS011;4184;42.724;23.308;2022-07-05T12:43:07;4.30;;;3.90;;
8291;SDS011;4184;42.724;23.308;2022-07-05T12:45:36;4.40;;;4.00;;
8291;SDS011;4184;42.724;23.308;2022-07-05T12:48:06;3.63;;;3.30;;
8291;SDS011;4184;42.724;23.308;2022-07-05T12:50:45;5.00;;;4.03;;
8291;SDS011;4184;42.724;23.308;2022-07-05T12:53:15;4.10;;;3.70;;
8291;SDS011;4184;42.724;23.308;2022-07-05T12:56:02;3.87;;;3.57;;
8291;SDS011;4184;42.724;23.308;2022-07-05T12:59:01;4.30;;;3.97;;
8291;SDS011;4184;42.724;23.308;2022-07-05T13:01:31;5.53;;;3.97;;
8291;SDS011;4184;42.724;23.308;2022-07-05T13:04:04;3.97;;;3.67;;
8291;SDS011;4184;42.724;23.308;2022-07-05T13:06:43;4.77;;;3.57;;
8291;SDS011;4184;42.724;23.308;2022-07-05T13:09:14;4.47;;;4.07;;
8291;SDS011;4184;42.724;23.308;2022-07-05T13:12:03;4.60;;;4.20;;
8291;SDS011;4184;42.724;23.308;2022-07-05T13:14:35;4.80;;;3.43;;
8291;SDS011;4184;42.724;23.308;2022-07-05T13:17:04;3.90;;;3.60;;
8291;SDS011;4184;42.724;23.308;2022-07-05T13:19:32;3.83;;;3.53;;
8291;SDS011;4184;42.724;23.308;2022-07-05T13:21:59;3.77;;;3.47;;
8291;SDS011;4184;42.724;23.308;2022-07-05T13:24:29;3.73;;;3.43;;
8291;SDS011;4184;42.724;23.308;2022-07-05T13:26:56;5.33;;;4.10;;
8291;SDS011;4184;42.724;23.308;2022-07-05T13:29:24;4.40;;;4.00;;
8291;SDS011;4184;42.724;23.308;2022-07-05T13:31:52;3.63;;;3.33;;
8291;SDS011;4184;42.724;23.308;2022-07-05T13:34:20;3.70;;;3.40;;
8291;SDS011;4184;42.724;23.308;2022-07-05T13:36:48;4.20;;;3.80;;
8291;SDS011;4184;42.724;23.308;2022-07-05T13:39:17;6.17;;;3.97;;
8291;SDS011;4184;42.724;23.308;2022-07-05T13:41:46;5.63;;;4.00;;
8291;SDS011;4184;42.724;23.308;2022-07-05T13:44:14;6.50;;;4.03;;
8291;SDS011;4184;42.724;23.308;2022-07-05T13:46:44;5.50;;;3.63;;
8291;SDS011;4184;42.724;23.308;2022-07-05T13:49:11;4.43;;;4.00;;
8291;SDS011;4184;42.724;23.308;2022-07-05T13:51:39;4.17;;;3.77;;
8291;SDS011;4184;42.724;23.308;2022-07-05T13:54:07;4.30;;;3.90;;
8291;SDS011;4184;42.724;23.308;2022-07-05T13:56:34;4.17;;;3.87;;
8291;SDS011;4184;42.724;23.308;2022-07-05T13:59:03;4.53;;;3.77;;
8291;SDS011;4184;42.724;23.308;2022-07-05T14:01:31;3.93;;;3.63;;
8291;SDS011;4184;42.724;23.308;2022-07-05T14:04:00;4.03;;;3.63;;
8291;SDS011;4184;42.724;23.308;2022-07-05T14:06:28;4.67;;;4.27;;
8291;SDS011;4184;42.724;23.308;2022-07-05T14:08:57;3.80;;;3.50;;
8291;SDS011;4184;42.724;23.308;2022-07-05T14:11:26;6.40;;;4.00;;
8291;SDS011;4184;42.724;23.308;2022-07-05T14:13:53;4.63;;;4.23;;
8291;SDS011;4184;42.724;23.308;2022-07-05T14:16:22;4.77;;;4.23;;
8291;SDS011;4184;42.724;23.308;2022-07-05T14:18:50;4.30;;;3.90;;
8291;SDS011;4184;42.724;23.308;2022-07-05T14:21:19;4.47;;;4.10;;
8291;SDS011;4184;42.724;23.308;2022-07-05T14:23:46;4.30;;;3.90;;
8291;SDS011;4184;42.724;23.308;2022-07-05T14:26:14;4.70;;;4.30;;
8291;SDS011;4184;42.724;23.308;2022-07-05T14:28:42;4.50;;;4.10;;
8291;SDS011;4184;42.724;23.308;2022-07-05T14:31:10;4.83;;;4.33;;
8291;SDS011;4184;42.724;23.308;2022-07-05T14:33:39;4.80;;;4.40;;
8291;SDS011;4184;42.724;23.308;2022-07-05T14:36:06;4.37;;;3.97;;
8291;SDS011;4184;42.724;23.308;2022-07-05T14:38:34;4.37;;;3.90;;
8291;SDS011;4184;42.724;23.308;2022-07-05T14:41:01;4.20;;;3.90;;
8291;SDS011;4184;42.724;23.308;2022-07-05T14:43:29;4.43;;;4.03;;
8291;SDS011;4184;42.724;23.308;2022-07-05T14:45:56;6.27;;;4.63;;
8291;SDS011;4184;42.724;23.308;2022-07-05T14:48:24;4.87;;;3.80;;
8291;SDS011;4184;42.724;23.308;2022-07-05T14:50:52;5.00;;;4.43;;
8291;SDS011;4184;42.724;23.308;2022-07-05T14:53:20;4.87;;;4.27;;
8291;SDS011;4184;42.724;23.308;2022-07-05T14:55:47;4.90;;;4.03;;
8291;SDS011;4184;42.724;23.308;2022-07-05T14:58:15;4.97;;;4.10;;
8291;SDS011;4184;42.724;23.308;2022-07-05T15:00:42;4.20;;;3.80;;
8291;SDS011;4184;42.724;23.308;2022-07-05T15:03:10;4.93;;;4.23;;
8291;SDS011;4184;42.724;23.308;2022-07-05T15:05:37;5.47;;;4.00;;
8291;SDS011;4184;42.724;23.308;2022-07-05T15:08:06;4.53;;;4.03;;
8291;SDS011;4184;42.724;23.308;2022-07-05T15:10:34;4.30;;;3.90;;
8291;SDS011;4184;42.724;23.308;2022-07-05T15:13:01;4.47;;;4.07;;
8291;SDS011;4184;42.724;23.308;2022-07-05T15:15:29;4.80;;;4.40;;
8291;SDS011;4184;42.724;23.308;2022-07-05T15:17:57;4.60;;;4.20;;
8291;SDS011;4184;42.724;23.308;2022-07-05T15:20:24;4.03;;;3.60;;
8291;SDS011;4184;42.724;23.308;2022-07-05T15:22:52;5.70;;;4.00;;